createdAt,value
2019-05-21T00:00:32.957Z,84.20
2019-05-21T00:03:02.843Z,84.40
2019-05-21T00:05:33.836Z,84.30
2019-05-21T00:08:03.729Z,84.10
2019-05-21T00:10:33.575Z,83.90
2019-05-21T00:13:03.507Z,83.70
2019-05-21T00:15:34.953Z,84.50
2019-05-21T00:18:05.224Z,84.30
2019-05-21T00:20:35.080Z,83.90
2019-05-21T00:23:05.043Z,84.50
2019-05-21T00:25:34.945Z,84.50
2019-05-21T00:28:33.946Z,84.20
2019-05-21T00:31:40.144Z,85.00
2019-05-21T00:34:46.488Z,84.60
2019-05-21T00:37:52.854Z,84.60
2019-05-21T00:40:59.494Z,84.90
2019-05-21T00:43:38.197Z,85.30
2019-05-21T00:46:08.388Z,85.40
2019-05-21T00:48:38.282Z,85.10
2019-05-21T00:51:08.138Z,85.30
2019-05-21T00:53:37.998Z,84.70
2019-05-21T00:56:07.872Z,84.60
2019-05-21T00:58:37.731Z,85.60
2019-05-21T01:01:07.677Z,86.00
2019-05-21T01:03:37.556Z,85.50
2019-05-21T01:06:07.414Z,84.70
2019-05-21T01:08:37.291Z,84.70
2019-05-21T01:11:07.145Z,84.20
2019-05-21T01:13:37.021Z,84.90
2019-05-21T01:16:07.287Z,85.30
2019-05-21T01:18:37.518Z,85.20
2019-05-21T01:21:07.416Z,85.30
2019-05-21T01:23:38.330Z,85.50
2019-05-21T01:26:08.168Z,85.00
2019-05-21T01:28:38.033Z,85.50
2019-05-21T01:31:07.897Z,85.10
2019-05-21T01:33:39.375Z,85.00
2019-05-21T01:36:09.268Z,85.10
2019-05-21T01:38:39.195Z,85.10
2019-05-21T01:41:09.039Z,85.10
2019-05-21T01:43:38.925Z,85.30
2019-05-21T01:46:08.773Z,85.20
2019-05-21T01:48:38.644Z,85.20
2019-05-21T01:51:08.866Z,85.30
2019-05-21T01:53:38.731Z,86.30
2019-05-21T01:56:09.548Z,85.20
2019-05-21T01:58:39.420Z,85.20
2019-05-21T02:01:09.276Z,85.40
2019-05-21T02:03:39.163Z,85.90
2019-05-21T02:06:09.165Z,85.60
2019-05-21T02:08:39.063Z,85.60
2019-05-21T02:11:08.904Z,85.50
2019-05-21T02:13:38.755Z,85.80
2019-05-21T02:16:09.050Z,85.80
2019-05-21T02:18:38.895Z,85.70
2019-05-21T02:21:08.814Z,85.00
2019-05-21T02:23:38.661Z,85.20
2019-05-21T02:26:08.527Z,86.10
2019-05-21T02:28:38.371Z,85.00
2019-05-21T02:31:08.232Z,84.60
2019-05-21T02:33:38.089Z,84.70
2019-05-21T02:36:07.948Z,84.90
2019-05-21T02:38:37.837Z,84.90
2019-05-21T02:41:09.301Z,85.00
2019-05-21T02:43:39.156Z,85.20
2019-05-21T02:46:09.062Z,85.40
2019-05-21T02:48:38.900Z,85.50
2019-05-21T02:51:08.853Z,85.20
2019-05-21T02:53:38.710Z,85.10
2019-05-21T02:56:08.893Z,84.90
2019-05-21T02:58:38.757Z,85.00
2019-05-21T03:01:10.250Z,84.70
2019-05-21T03:03:40.114Z,85.00
2019-05-21T03:06:14.158Z,85.20
2019-05-21T03:08:41.455Z,85.20
2019-05-21T03:11:24.761Z,85.50
2019-05-21T03:13:54.905Z,85.10
2019-05-21T03:16:25.825Z,85.30
2019-05-21T03:18:55.765Z,85.60
2019-05-21T03:21:25.619Z,85.40
2019-05-21T03:23:55.467Z,85.00
2019-05-21T03:26:25.330Z,85.30
2019-05-21T03:28:55.178Z,85.60
2019-05-21T03:31:25.023Z,85.10
2019-05-21T03:33:54.879Z,85.40
2019-05-21T03:36:33.319Z,85.30
2019-05-21T03:38:56.183Z,85.00
2019-05-21T03:41:26.355Z,85.40
2019-05-21T03:43:56.188Z,85.50
2019-05-21T03:46:26.031Z,85.20
2019-05-21T03:48:55.889Z,85.40
2019-05-21T03:51:25.733Z,85.30
2019-05-21T03:53:55.619Z,85.50
2019-05-21T03:56:25.482Z,85.80
2019-05-21T03:58:55.340Z,85.70
2019-05-21T04:01:25.186Z,85.70
2019-05-21T04:03:55.066Z,85.60
2019-05-21T04:06:28.749Z,85.50
2019-05-21T04:08:56.468Z,85.10
2019-05-21T04:11:26.278Z,86.20
2019-05-21T04:13:56.135Z,85.80
2019-05-21T04:16:39.619Z,85.70
2019-05-21T04:19:19.976Z,86.10
2019-05-21T04:21:49.866Z,85.50
2019-05-21T04:24:20.036Z,85.40
2019-05-21T04:26:49.896Z,85.70
2019-05-21T04:29:19.793Z,85.80
2019-05-21T04:31:50.003Z,85.70
2019-05-21T04:34:20.335Z,85.90
2019-05-21T04:36:50.197Z,85.80
2019-05-21T04:39:20.107Z,85.60
2019-05-21T04:41:49.954Z,85.60
2019-05-21T04:44:19.816Z,85.70
2019-05-21T04:46:49.677Z,85.40
2019-05-21T04:49:19.525Z,85.70
2019-05-21T04:51:49.794Z,85.60
2019-05-21T04:54:20.005Z,85.70
2019-05-21T04:56:49.938Z,85.50
2019-05-21T04:59:19.797Z,85.40
2019-05-21T05:01:49.654Z,85.40
2019-05-21T05:04:21.955Z,85.50
2019-05-21T05:06:52.557Z,85.90
2019-05-21T05:09:22.734Z,85.70
2019-05-21T05:11:52.592Z,85.00
2019-05-21T05:14:23.608Z,85.00
2019-05-21T05:16:53.503Z,85.40
2019-05-21T05:19:23.357Z,84.70
2019-05-21T05:21:53.259Z,85.30
2019-05-21T05:24:23.103Z,85.80
2019-05-21T05:26:52.958Z,84.90
2019-05-21T05:29:23.186Z,84.80
2019-05-21T05:31:54.000Z,84.60
2019-05-21T05:34:23.879Z,84.70
2019-05-21T05:36:53.731Z,84.70
2019-05-21T05:39:23.645Z,85.40
2019-05-21T05:41:53.850Z,85.10
2019-05-21T05:44:23.711Z,84.70
2019-05-21T05:46:53.640Z,84.60
2019-05-21T05:49:32.730Z,84.90
2019-05-21T05:52:02.591Z,84.70
2019-05-21T05:54:32.457Z,84.80
2019-05-21T05:57:02.302Z,84.90
2019-05-21T05:59:32.153Z,84.00
2019-05-21T06:02:02.001Z,84.30
2019-05-21T06:04:31.858Z,84.30
2019-05-21T06:07:04.157Z,84.10
2019-05-21T06:09:34.008Z,84.40
2019-05-21T06:12:03.875Z,84.30
2019-05-21T06:14:33.728Z,84.50
2019-05-21T06:17:03.640Z,84.50
2019-05-21T06:19:33.542Z,84.40
2019-05-21T06:22:03.413Z,84.60
2019-05-21T06:24:33.305Z,83.90
2019-05-21T06:27:03.207Z,84.90
2019-05-21T06:29:33.458Z,84.00
2019-05-21T06:32:05.738Z,84.10
2019-05-21T06:34:35.170Z,84.20
2019-05-21T06:37:05.131Z,83.70
2019-05-21T06:39:35.375Z,84.00
2019-05-21T06:42:05.264Z,83.20
2019-05-21T06:44:36.098Z,84.50
2019-05-21T06:47:05.949Z,84.20
2019-05-21T06:49:35.811Z,84.60
2019-05-21T06:52:05.668Z,86.00
2019-05-21T06:54:35.530Z,86.20
2019-05-21T06:57:05.424Z,87.00
2019-05-21T06:59:35.612Z,87.60
2019-05-21T07:02:05.582Z,87.50
2019-05-21T07:04:35.587Z,88.70
2019-05-21T07:07:05.437Z,88.10
2019-05-21T07:09:35.313Z,88.70
2019-05-21T07:12:05.226Z,88.60
2019-05-21T07:14:35.096Z,88.60
2019-05-21T07:17:05.370Z,86.90
2019-05-21T07:19:35.246Z,85.90
2019-05-21T07:22:12.523Z,86.40
2019-05-21T07:24:36.869Z,86.30
2019-05-21T07:27:06.757Z,85.90
2019-05-21T07:29:36.646Z,87.60
2019-05-21T07:32:06.514Z,88.30
2019-05-21T07:34:36.414Z,88.50
2019-05-21T07:37:06.975Z,87.20
2019-05-21T07:39:36.830Z,87.00
2019-05-21T07:42:06.706Z,86.70
2019-05-21T07:44:36.578Z,86.60
2019-05-21T07:47:06.479Z,87.00
2019-05-21T07:49:37.954Z,86.40
2019-05-21T07:52:07.825Z,86.90
2019-05-21T07:54:37.688Z,86.80
2019-05-21T07:57:07.546Z,86.70
2019-05-21T07:59:37.418Z,86.30
2019-05-21T08:02:07.278Z,86.90
2019-05-21T08:04:37.147Z,86.80
2019-05-21T08:07:07.041Z,86.50
2019-05-21T08:09:36.971Z,84.70
2019-05-21T08:12:27.801Z,86.60
2019-05-21T08:14:38.649Z,86.00
2019-05-21T08:17:08.552Z,85.00
2019-05-21T08:19:38.398Z,85.00
2019-05-21T08:22:08.286Z,84.80
2019-05-21T08:24:38.154Z,84.40
2019-05-21T08:27:08.009Z,82.00
2019-05-21T08:29:37.894Z,80.90
2019-05-21T08:32:07.756Z,81.10
2019-05-21T08:34:37.702Z,81.20
2019-05-21T08:37:07.594Z,80.90
2019-05-21T08:39:37.496Z,81.00
2019-05-21T08:42:07.381Z,81.80
2019-05-21T08:44:37.293Z,79.70
2019-05-21T08:47:07.613Z,78.00
2019-05-21T08:49:37.604Z,77.50
2019-05-21T08:52:07.479Z,76.50
2019-05-21T08:54:50.389Z,76.50
2019-05-21T08:57:20.277Z,76.60
2019-05-21T08:59:50.125Z,76.10
2019-05-21T09:02:19.997Z,75.50
2019-05-21T09:04:49.878Z,75.30
2019-05-21T09:07:19.794Z,76.40
2019-05-21T09:09:51.620Z,74.20
2019-05-21T09:12:21.609Z,73.50
2019-05-21T09:14:51.876Z,74.30
2019-05-21T09:17:21.769Z,74.80
2019-05-21T09:19:54.085Z,73.60
2019-05-21T09:22:24.421Z,73.80
2019-05-21T09:24:54.276Z,72.60
2019-05-21T09:27:25.212Z,71.80
2019-05-21T09:29:55.097Z,70.50
2019-05-21T09:32:25.005Z,72.90
2019-05-21T09:34:54.849Z,72.60
2019-05-21T09:37:24.719Z,71.40
2019-05-21T09:39:54.589Z,72.40
2019-05-21T09:42:24.519Z,69.90
2019-05-21T09:44:54.377Z,70.20
2019-05-21T09:47:24.230Z,70.40
2019-05-21T09:49:54.194Z,69.90
2019-05-21T09:52:24.027Z,69.90
2019-05-21T09:54:53.977Z,69.90
2019-05-21T09:57:28.195Z,67.30
2019-05-21T10:00:11.586Z,69.60
2019-05-21T10:02:41.515Z,67.40
2019-05-21T10:05:11.441Z,70.00
2019-05-21T10:07:41.338Z,68.30
2019-05-21T10:10:11.194Z,66.40
2019-05-21T10:12:41.064Z,67.70
2019-05-21T10:15:11.317Z,67.20
2019-05-21T10:17:41.156Z,67.50
2019-05-21T10:20:11.017Z,65.20
2019-05-21T10:22:42.006Z,63.10
2019-05-21T10:25:11.878Z,63.90
2019-05-21T10:27:41.730Z,63.20
2019-05-21T10:30:11.696Z,60.20
2019-05-21T10:32:41.550Z,62.80
2019-05-21T10:35:11.785Z,62.90
2019-05-21T10:37:53.961Z,60.40
2019-05-21T10:40:13.140Z,63.00
2019-05-21T10:42:43.011Z,63.00
2019-05-21T10:45:13.248Z,59.60
2019-05-21T10:47:43.112Z,63.90
2019-05-21T10:50:12.983Z,61.90
2019-05-21T10:52:45.689Z,60.40
2019-05-21T10:55:16.611Z,61.20
2019-05-21T10:57:47.025Z,59.30
2019-05-21T11:00:23.019Z,61.00
2019-05-21T11:02:57.231Z,58.80
2019-05-21T11:05:29.072Z,58.70
2019-05-21T11:08:22.254Z,60.80
2019-05-21T11:10:30.483Z,62.00
2019-05-21T11:13:00.328Z,60.20
2019-05-21T11:15:30.246Z,60.10
2019-05-21T11:18:10.704Z,60.40
2019-05-21T11:20:31.579Z,61.60
2019-05-21T11:23:01.537Z,60.50
2019-05-21T11:25:31.426Z,60.70
2019-05-21T11:28:01.277Z,60.90
2019-05-21T11:30:31.470Z,60.00
2019-05-21T11:33:01.401Z,61.10
2019-05-21T11:35:35.261Z,60.50
2019-05-21T11:38:04.182Z,59.90
2019-05-21T11:40:34.053Z,60.10
2019-05-21T11:43:03.901Z,59.00
2019-05-21T11:45:33.737Z,59.20
2019-05-21T11:48:04.670Z,59.60
2019-05-21T11:50:34.514Z,58.50
2019-05-21T11:53:04.354Z,59.50
2019-05-21T11:55:34.225Z,59.90
2019-05-21T11:58:04.089Z,56.00
2019-05-21T12:00:34.012Z,58.30
2019-05-21T12:03:03.956Z,59.20
2019-05-21T12:05:33.817Z,59.60
2019-05-21T12:08:03.762Z,59.30
2019-05-21T12:10:33.610Z,60.60
2019-05-21T12:13:03.465Z,59.70
2019-05-21T12:15:33.310Z,57.30
2019-05-21T12:18:03.167Z,58.20
2019-05-21T12:20:36.726Z,58.60
2019-05-21T12:23:04.671Z,58.00
2019-05-21T12:25:35.044Z,58.60
2019-05-21T12:28:05.575Z,60.70
2019-05-21T12:30:35.417Z,58.20
2019-05-21T12:33:05.334Z,56.90
2019-05-21T12:35:35.226Z,57.30
2019-05-21T12:38:05.143Z,55.90
2019-05-21T12:40:34.990Z,57.70
2019-05-21T12:43:04.886Z,57.80
2019-05-21T12:45:34.732Z,56.50
2019-05-21T12:48:04.580Z,57.50
2019-05-21T12:50:34.423Z,58.30
2019-05-21T12:53:04.725Z,58.20
2019-05-21T12:55:34.570Z,59.80
2019-05-21T12:58:04.485Z,58.30
2019-05-21T13:00:35.499Z,58.90
2019-05-21T13:03:05.343Z,58.70
2019-05-21T13:05:35.506Z,57.60
2019-05-21T13:08:05.382Z,59.80
2019-05-21T13:10:35.210Z,59.30
2019-05-21T13:13:05.454Z,60.70
2019-05-21T13:15:35.702Z,57.00
2019-05-21T13:18:05.553Z,58.40
2019-05-21T13:20:35.410Z,57.20
2019-05-21T13:23:05.334Z,58.00
2019-05-21T13:25:36.562Z,58.50
2019-05-21T13:28:06.782Z,58.80
2019-05-21T13:30:36.673Z,61.10
2019-05-21T13:33:06.525Z,61.60
2019-05-21T13:35:36.741Z,59.60
2019-05-21T13:38:06.982Z,60.20
2019-05-21T13:40:37.141Z,59.90
2019-05-21T13:43:08.355Z,60.60
2019-05-21T13:45:38.260Z,59.70
2019-05-21T13:48:08.261Z,59.40
2019-05-21T13:50:38.130Z,58.10
2019-05-21T13:53:07.985Z,58.20
2019-05-21T13:55:37.854Z,58.60
2019-05-21T13:58:07.819Z,58.20
2019-05-21T14:00:39.304Z,59.20
2019-05-21T14:03:09.691Z,60.10
2019-05-21T14:05:39.550Z,57.60
2019-05-21T14:08:09.785Z,58.00
2019-05-21T14:10:39.953Z,58.00
2019-05-21T14:13:09.831Z,58.50
2019-05-21T14:15:40.086Z,59.00
2019-05-21T14:18:09.942Z,59.20
2019-05-21T14:20:39.819Z,58.80
2019-05-21T14:23:09.722Z,58.70
2019-05-21T14:25:39.584Z,58.70
2019-05-21T14:28:09.868Z,58.60
2019-05-21T14:30:39.765Z,60.50
2019-05-21T14:33:09.693Z,61.80
2019-05-21T14:35:39.714Z,62.80
2019-05-21T14:38:09.570Z,62.20
2019-05-21T14:40:39.553Z,62.50
2019-05-21T14:43:09.466Z,63.30
2019-05-21T14:45:39.674Z,63.60
2019-05-21T14:48:09.918Z,63.50
2019-05-21T14:50:40.885Z,63.40
2019-05-21T14:53:10.806Z,64.60
2019-05-21T14:55:40.741Z,65.30
2019-05-21T14:58:10.621Z,65.30
2019-05-21T15:00:40.480Z,64.40
2019-05-21T15:03:24.235Z,65.10
2019-05-21T15:05:43.300Z,65.90
2019-05-21T15:08:13.251Z,65.60
2019-05-21T15:10:48.611Z,65.40
2019-05-21T15:13:14.598Z,65.60
2019-05-21T15:15:44.764Z,65.90
2019-05-21T15:18:20.672Z,65.20
2019-05-21T15:20:47.869Z,65.40
2019-05-21T15:23:17.742Z,66.10
2019-05-21T15:25:47.937Z,66.50
2019-05-21T15:28:18.172Z,65.60
2019-05-21T15:30:48.043Z,65.90
2019-05-21T15:33:18.289Z,65.40
2019-05-21T15:35:48.215Z,66.10
2019-05-21T15:38:18.153Z,65.20
2019-05-21T15:41:06.622Z,66.30
2019-05-21T15:43:19.932Z,65.30
2019-05-21T15:45:49.834Z,65.90
2019-05-21T15:48:19.652Z,65.70
2019-05-21T15:50:49.524Z,65.70
2019-05-21T15:53:19.388Z,66.00
2019-05-21T15:55:49.580Z,66.70
2019-05-21T15:58:19.460Z,67.00
2019-05-21T16:00:49.315Z,67.00
2019-05-21T16:03:19.173Z,66.90
2019-05-21T16:05:49.021Z,67.20
2019-05-21T16:08:19.250Z,66.70
2019-05-21T16:10:50.505Z,66.70
2019-05-21T16:13:20.435Z,66.40
2019-05-21T16:15:50.318Z,66.60
2019-05-21T16:18:20.166Z,66.70
2019-05-21T16:20:50.027Z,66.20
2019-05-21T16:23:20.210Z,67.20
2019-05-21T16:25:50.071Z,66.80
2019-05-21T16:28:19.953Z,66.70
2019-05-21T16:30:49.809Z,67.20
2019-05-21T16:33:19.680Z,67.60
2019-05-21T16:35:49.602Z,67.80
2019-05-21T16:38:19.921Z,68.40
2019-05-21T16:40:49.791Z,67.90
2019-05-21T16:43:19.641Z,68.30
2019-05-21T16:45:49.934Z,69.20
2019-05-21T16:48:20.149Z,69.40
2019-05-21T16:50:50.007Z,69.60
2019-05-21T16:53:20.170Z,69.80
2019-05-21T16:55:50.045Z,70.00
2019-05-21T16:58:19.908Z,70.40
2019-05-21T17:00:49.769Z,70.40
2019-05-21T17:03:20.054Z,70.30
2019-05-21T17:05:49.987Z,69.60
2019-05-21T17:08:19.893Z,70.70
2019-05-21T17:10:49.809Z,71.10
2019-05-21T17:13:19.676Z,71.30
2019-05-21T17:15:49.542Z,71.90
2019-05-21T17:18:19.402Z,72.00
2019-05-21T17:20:49.338Z,72.00
2019-05-21T17:23:19.515Z,72.80
2019-05-21T17:25:49.797Z,72.90
2019-05-21T17:28:20.002Z,73.00
2019-05-21T17:30:50.139Z,73.10
2019-05-21T17:33:20.435Z,73.00
2019-05-21T17:35:50.304Z,73.20
2019-05-21T17:38:20.193Z,73.50
2019-05-21T17:40:50.053Z,74.90
2019-05-21T17:43:19.951Z,74.50
2019-05-21T17:45:50.229Z,73.90
2019-05-21T17:48:20.078Z,74.30
2019-05-21T17:50:50.030Z,74.10
2019-05-21T17:53:20.183Z,73.60
2019-05-21T17:55:50.105Z,73.40
2019-05-21T17:58:20.049Z,73.60
2019-05-21T18:00:51.561Z,73.20
2019-05-21T18:03:21.698Z,73.30
2019-05-21T18:05:53.035Z,73.60
2019-05-21T18:08:23.242Z,73.70
2019-05-21T18:10:53.791Z,74.10
2019-05-21T18:13:24.838Z,75.10
2019-05-21T18:15:55.181Z,75.30
2019-05-21T18:18:25.457Z,77.50
2019-05-21T18:20:56.169Z,74.70
2019-05-21T18:23:27.121Z,74.70
2019-05-21T18:25:57.500Z,73.80
2019-05-21T18:28:27.412Z,73.60
2019-05-21T18:30:57.273Z,72.20
2019-05-21T18:33:27.140Z,72.60
2019-05-21T18:35:57.529Z,72.30
2019-05-21T18:38:27.449Z,72.60
2019-05-21T18:40:57.314Z,72.30
2019-05-21T18:43:27.581Z,72.90
2019-05-21T18:45:57.817Z,73.80
2019-05-21T18:48:28.141Z,74.00
2019-05-21T18:50:57.994Z,74.60
2019-05-21T18:53:27.895Z,75.30
2019-05-21T18:55:58.077Z,75.70
2019-05-21T18:58:28.277Z,75.80
2019-05-21T19:00:58.149Z,76.10
2019-05-21T19:03:28.118Z,76.40
2019-05-21T19:05:57.969Z,76.30
2019-05-21T19:08:28.011Z,76.20
2019-05-21T19:10:57.994Z,76.90
2019-05-21T19:13:28.209Z,77.20
2019-05-21T19:15:58.081Z,76.90
2019-05-21T19:18:28.029Z,77.40
2019-05-21T19:20:57.927Z,77.70
2019-05-21T19:23:28.166Z,77.10
2019-05-21T19:25:58.418Z,76.10
2019-05-21T19:28:28.621Z,77.10
2019-05-21T19:30:58.519Z,76.90
2019-05-21T19:33:28.369Z,76.10
2019-05-21T19:35:58.694Z,76.80
2019-05-21T19:38:29.637Z,75.20
2019-05-21T19:40:59.560Z,75.10
2019-05-21T19:43:29.473Z,76.60
2019-05-21T19:45:59.321Z,77.20
2019-05-21T19:48:30.256Z,78.00
2019-05-21T19:51:00.490Z,77.90
2019-05-21T19:53:31.698Z,78.50
2019-05-21T19:56:01.632Z,79.10
2019-05-21T19:58:32.666Z,79.40
2019-05-21T20:01:04.194Z,79.50
2019-05-21T20:03:34.188Z,79.60
2019-05-21T20:06:04.622Z,79.90
2019-05-21T20:08:34.854Z,79.40
2019-05-21T20:11:06.383Z,78.90
2019-05-21T20:13:36.633Z,78.70
2019-05-21T20:16:06.923Z,79.10
2019-05-21T20:18:36.781Z,79.00
2019-05-21T20:21:08.610Z,79.40
2019-05-21T20:23:38.643Z,79.60
2019-05-21T20:26:10.873Z,79.90
2019-05-21T20:28:41.624Z,79.40
2019-05-21T20:31:11.953Z,79.30
2019-05-21T20:33:43.499Z,79.60
2019-05-21T20:36:13.454Z,80.10
2019-05-21T20:38:43.949Z,80.50
2019-05-21T20:41:17.552Z,81.00
2019-05-21T20:43:58.188Z,80.60
2019-05-21T20:46:17.733Z,80.00
2019-05-21T20:48:49.173Z,79.70
2019-05-21T20:51:19.194Z,80.20
2019-05-21T20:53:49.145Z,80.30
2019-05-21T20:56:19.045Z,80.30
2019-05-21T20:58:49.329Z,80.40
2019-05-21T21:01:19.561Z,80.50
2019-05-21T21:03:49.985Z,80.30
2019-05-21T21:06:34.268Z,80.20
2019-05-21T21:08:52.482Z,80.40
2019-05-21T21:11:23.053Z,81.00
2019-05-21T21:13:52.997Z,81.50
2019-05-21T21:16:22.947Z,81.50
2019-05-21T21:18:52.891Z,81.00
2019-05-21T21:21:23.760Z,80.80
2019-05-21T21:23:56.421Z,80.90
2019-05-21T21:26:26.361Z,80.90
2019-05-21T21:28:56.254Z,81.40
2019-05-21T21:31:26.797Z,81.50
2019-05-21T21:33:57.443Z,82.00
2019-05-21T21:36:27.304Z,81.40
2019-05-21T21:38:58.289Z,81.10
2019-05-21T21:41:28.443Z,80.90
2019-05-21T21:43:58.750Z,81.20
2019-05-21T21:46:28.946Z,81.40
2019-05-21T21:48:58.811Z,81.50
2019-05-21T21:51:28.802Z,81.50
2019-05-21T21:53:59.692Z,81.40
2019-05-21T21:56:30.065Z,81.50
2019-05-21T21:59:00.390Z,81.60
2019-05-21T22:01:41.140Z,81.70
2019-05-21T22:04:11.111Z,81.80
2019-05-21T22:06:41.704Z,82.00
2019-05-21T22:09:13.631Z,82.20
2019-05-21T22:11:43.631Z,81.90
2019-05-21T22:14:13.517Z,81.80
2019-05-21T22:16:43.375Z,82.50
2019-05-21T22:19:13.384Z,82.70
2019-05-21T22:21:43.252Z,82.40
2019-05-21T22:24:13.951Z,82.60
2019-05-21T22:26:43.842Z,82.30
2019-05-21T22:29:14.514Z,82.80
2019-05-21T22:31:44.849Z,82.60
2019-05-21T22:34:14.720Z,82.20
2019-05-21T22:36:44.975Z,81.60
2019-05-21T22:39:18.980Z,81.50
2019-05-21T22:41:48.849Z,81.40
2019-05-21T22:44:19.144Z,81.60
2019-05-21T22:46:49.440Z,81.40
2019-05-21T22:49:19.404Z,81.30
2019-05-21T22:51:49.603Z,81.50
2019-05-21T22:54:19.472Z,81.60
2019-05-21T22:56:49.336Z,81.70
2019-05-21T22:59:19.626Z,82.00
2019-05-21T23:01:50.751Z,81.70
2019-05-21T23:04:23.420Z,81.40
2019-05-21T23:06:54.926Z,81.10
2019-05-21T23:09:24.869Z,81.50
2019-05-21T23:11:54.723Z,82.40
2019-05-21T23:14:24.953Z,81.80
2019-05-21T23:16:55.278Z,81.60
2019-05-21T23:19:27.179Z,81.30
2019-05-21T23:21:59.210Z,81.60
2019-05-21T23:24:29.901Z,81.70
2019-05-21T23:27:00.454Z,81.80
2019-05-21T23:29:31.036Z,82.10
2019-05-21T23:32:01.092Z,82.80
2019-05-21T23:34:31.746Z,81.90
2019-05-21T23:37:02.997Z,81.60
2019-05-21T23:39:34.967Z,81.80
2019-05-21T23:42:06.466Z,81.20
2019-05-21T23:44:36.410Z,80.60
2019-05-21T23:47:08.385Z,80.70
2019-05-21T23:49:38.594Z,80.70
2019-05-21T23:52:08.458Z,81.70
2019-05-21T23:54:38.739Z,81.20
2019-05-21T23:57:10.907Z,81.30
2019-05-21T23:59:40.765Z,81.20
